createdAt,value
2024-01-09T00:02:25.162Z,-0.60
2024-01-09T00:04:53.236Z,-0.60
2024-01-09T00:07:21.078Z,-0.60
2024-01-09T00:09:49.774Z,-0.60
2024-01-09T00:12:19.299Z,-0.60
2024-01-09T00:14:47.263Z,-0.60
2024-01-09T00:17:15.505Z,-0.70
2024-01-09T00:19:43.779Z,-0.60
2024-01-09T00:22:11.631Z,-0.70
2024-01-09T00:24:39.938Z,-0.70
2024-01-09T00:27:08.203Z,-0.70
2024-01-09T00:29:37.687Z,-0.70
2024-01-09T00:32:09.835Z,-0.60
2024-01-09T00:34:38.008Z,-0.70
2024-01-09T00:37:05.935Z,-1.00
2024-01-09T00:39:36.273Z,-0.80
2024-01-09T00:42:04.550Z,-0.80
2024-01-09T00:44:32.838Z,-0.70
2024-01-09T00:47:02.215Z,-0.80
2024-01-09T00:49:30.089Z,-0.80
2024-01-09T00:51:58.434Z,-0.80
2024-01-09T00:54:27.053Z,-0.80
2024-01-09T00:56:54.924Z,-0.80
2024-01-09T00:59:23.106Z,-0.80
2024-01-09T01:01:51.772Z,-0.80
2024-01-09T01:04:20.982Z,-0.80
2024-01-09T01:06:50.836Z,-0.80
2024-01-09T01:09:18.597Z,-0.90
2024-01-09T01:11:46.942Z,-0.80
2024-01-09T01:14:15.029Z,-0.90
2024-01-09T01:16:42.790Z,-0.80
2024-01-09T01:19:10.829Z,-0.90
2024-01-09T01:21:40.140Z,-0.80
2024-01-09T01:24:07.981Z,-0.80
2024-01-09T01:26:35.931Z,-0.90
2024-01-09T01:29:03.709Z,-0.90
2024-01-09T01:31:31.718Z,-0.90
2024-01-09T01:33:59.778Z,-0.90
2024-01-09T01:36:28.707Z,-0.90
2024-01-09T01:38:58.267Z,-1.00
2024-01-09T01:41:26.328Z,-0.90
2024-01-09T01:43:53.945Z,-0.90
2024-01-09T01:46:24.024Z,-0.90
2024-01-09T01:48:52.525Z,-0.90
2024-01-09T01:51:20.505Z,-0.90
2024-01-09T01:53:48.521Z,-0.90
2024-01-09T01:56:18.798Z,-0.90
2024-01-09T01:58:46.783Z,-0.90
2024-01-09T02:01:14.771Z,-0.90
2024-01-09T02:03:42.719Z,-0.90
2024-01-09T02:06:12.303Z,-0.90
2024-01-09T02:08:40.870Z,-0.90
2024-01-09T02:11:11.507Z,-0.90
2024-01-09T02:13:41.085Z,-0.90
2024-01-09T02:16:09.016Z,-0.80
2024-01-09T02:18:36.835Z,-0.80
2024-01-09T02:21:04.707Z,-0.80
2024-01-09T02:23:32.476Z,-0.80
2024-01-09T02:26:07.112Z,-0.90
2024-01-09T02:28:41.124Z,-0.90
2024-01-09T02:31:10.576Z,-0.90
2024-01-09T02:33:39.213Z,-0.90
2024-01-09T02:36:07.273Z,-0.90
2024-01-09T02:38:35.992Z,-0.90
2024-01-09T02:41:03.907Z,-0.90
2024-01-09T02:43:31.966Z,-0.90
2024-01-09T02:45:59.664Z,-0.90
2024-01-09T02:48:28.819Z,-1.00
2024-01-09T02:50:56.718Z,-1.00
2024-01-09T02:53:25.118Z,-1.00
2024-01-09T02:55:52.847Z,-1.10
2024-01-09T02:58:21.317Z,-1.10
2024-01-09T03:00:49.353Z,-1.00
2024-01-09T03:03:17.414Z,-1.00
2024-01-09T03:05:47.007Z,-1.00
2024-01-09T03:08:16.318Z,-1.10
2024-01-09T03:10:45.057Z,-1.10
2024-01-09T03:13:13.103Z,-1.10
2024-01-09T03:15:41.156Z,-1.20
2024-01-09T03:18:09.380Z,-1.20
2024-01-09T03:20:37.332Z,-1.20
2024-01-09T03:23:06.985Z,-1.20
2024-01-09T03:25:37.689Z,-1.20
2024-01-09T03:28:06.082Z,-1.10
2024-01-09T03:30:34.124Z,-1.20
2024-01-09T03:33:01.996Z,-1.10
2024-01-09T03:35:30.208Z,-1.10
2024-01-09T03:38:00.275Z,-1.10
2024-01-09T03:40:29.384Z,-1.10
2024-01-09T03:42:57.099Z,-1.20
2024-01-09T03:45:25.211Z,-1.10
2024-01-09T03:47:53.068Z,-1.20
2024-01-09T03:50:20.856Z,-1.20
2024-01-09T03:52:48.874Z,-1.20
2024-01-09T03:55:17.268Z,-1.20
2024-01-09T03:57:47.002Z,-1.20
2024-01-09T04:00:17.670Z,-1.20
2024-01-09T04:02:45.489Z,-1.20
2024-01-09T04:05:14.312Z,-1.20
2024-01-09T04:07:42.693Z,-1.20
2024-01-09T04:10:13.048Z,-1.20
2024-01-09T04:12:41.170Z,-1.20
2024-01-09T04:15:10.889Z,-1.20
2024-01-09T04:17:39.001Z,-1.20
2024-01-09T04:20:07.478Z,-1.20
2024-01-09T04:22:35.531Z,-1.10
2024-01-09T04:25:04.241Z,-1.20
2024-01-09T04:27:32.320Z,-1.20
2024-01-09T04:30:01.414Z,-1.30
2024-01-09T04:32:32.212Z,-1.30
2024-01-09T04:35:00.220Z,-1.30
2024-01-09T04:37:27.991Z,-1.40
2024-01-09T04:39:55.675Z,-1.40
2024-01-09T04:42:23.548Z,-1.40
2024-01-09T04:44:51.404Z,-1.40
2024-01-09T04:47:19.244Z,-1.30
2024-01-09T04:49:48.803Z,-1.40
2024-01-09T04:52:16.990Z,-1.40
2024-01-09T04:54:45.201Z,-1.30
2024-01-09T04:57:13.276Z,-1.30
2024-01-09T04:59:42.102Z,-1.30
2024-01-09T05:02:11.388Z,-1.30
2024-01-09T05:04:39.174Z,-1.30
2024-01-09T05:07:08.261Z,-1.40
2024-01-09T05:09:36.792Z,-1.40
2024-01-09T05:12:05.422Z,-1.40
2024-01-09T05:14:33.574Z,-1.40
2024-01-09T05:17:01.476Z,-1.50
2024-01-09T05:19:29.429Z,-1.50
2024-01-09T05:21:57.539Z,-1.50
2024-01-09T05:24:26.627Z,-1.50
2024-01-09T05:26:54.538Z,-1.50
2024-01-09T05:29:22.728Z,-1.50
2024-01-09T05:31:50.618Z,-1.50
2024-01-09T05:34:19.956Z,-1.50
2024-01-09T05:36:47.776Z,-1.50
2024-01-09T05:39:15.975Z,-1.50
2024-01-09T05:41:45.141Z,-1.50
2024-01-09T05:44:13.055Z,-1.50
2024-01-09T05:46:41.073Z,-1.60
2024-01-09T05:49:09.302Z,-1.60
2024-01-09T05:51:37.095Z,-1.50
2024-01-09T05:54:06.785Z,-1.50
2024-01-09T05:56:34.630Z,-1.60
2024-01-09T05:59:04.079Z,-1.60
2024-01-09T06:01:34.181Z,-1.60
2024-01-09T06:04:02.052Z,-1.60
2024-01-09T06:06:30.078Z,-1.70
2024-01-09T06:08:58.158Z,-1.70
2024-01-09T06:11:26.084Z,-1.70
2024-01-09T06:13:55.369Z,-1.70
2024-01-09T06:16:24.898Z,-1.70
2024-01-09T06:18:53.160Z,-1.70
2024-01-09T06:21:23.991Z,-1.70
2024-01-09T06:23:51.893Z,-1.70
2024-01-09T06:26:21.983Z,-1.80
2024-01-09T06:28:50.126Z,-1.80
2024-01-09T06:31:17.819Z,-1.80
2024-01-09T06:33:47.947Z,-1.80
2024-01-09T06:36:22.189Z,-1.80
2024-01-09T06:38:51.002Z,-1.80
2024-01-09T06:41:18.891Z,-1.80
2024-01-09T06:43:47.374Z,-1.80
2024-01-09T06:46:15.536Z,-1.80
2024-01-09T06:48:44.226Z,-1.80
2024-01-09T06:51:14.920Z,-1.80
2024-01-09T06:53:43.130Z,-1.80
2024-01-09T06:56:11.227Z,-1.80
2024-01-09T06:58:39.938Z,-1.80
2024-01-09T07:01:09.398Z,-1.80
2024-01-09T07:03:37.965Z,-1.80
2024-01-09T07:06:07.001Z,-1.80
2024-01-09T07:08:36.762Z,-1.80
2024-01-09T07:11:04.865Z,-1.80
2024-01-09T07:13:33.049Z,-1.80
2024-01-09T07:16:03.233Z,-1.80
2024-01-09T07:18:31.431Z,-1.90
2024-01-09T07:21:00.354Z,-1.90
2024-01-09T07:23:28.197Z,-1.90
2024-01-09T07:25:57.341Z,-2.00
2024-01-09T07:28:25.681Z,-2.00
2024-01-09T07:30:55.841Z,-2.00
2024-01-09T07:33:24.147Z,-2.00
2024-01-09T07:35:54.538Z,-2.00
2024-01-09T07:38:26.510Z,-2.10
2024-01-09T07:40:57.685Z,-2.00
2024-01-09T07:43:29.297Z,-2.10
2024-01-09T07:45:57.308Z,-2.10
2024-01-09T07:48:25.384Z,-2.10
2024-01-09T07:50:53.336Z,-2.10
2024-01-09T07:53:21.878Z,-2.20
2024-01-09T07:55:49.820Z,-2.20
2024-01-09T07:58:17.799Z,-2.10
2024-01-09T08:00:47.504Z,-2.10
2024-01-09T08:03:18.632Z,-2.10
2024-01-09T08:05:49.078Z,-2.20
2024-01-09T08:08:17.228Z,-2.20
2024-01-09T08:10:46.156Z,-2.20
2024-01-09T08:13:14.439Z,-2.20
2024-01-09T08:15:42.279Z,-2.20
2024-01-09T08:18:11.921Z,-2.20
2024-01-09T08:20:39.893Z,-2.20
2024-01-09T08:23:09.602Z,-2.20
2024-01-09T08:25:37.629Z,-2.20
2024-01-09T08:28:05.587Z,-2.20
2024-01-09T08:30:33.957Z,-2.20
2024-01-09T08:33:02.392Z,-2.20
2024-01-09T08:35:32.169Z,-2.20
2024-01-09T08:38:00.059Z,-2.20
2024-01-09T08:40:28.509Z,-2.20
2024-01-09T08:42:56.952Z,-2.10
2024-01-09T08:45:25.647Z,-2.20
2024-01-09T08:47:53.816Z,-2.10
2024-01-09T08:50:21.982Z,-2.10
2024-01-09T08:52:53.312Z,-1.80
2024-01-09T08:55:21.620Z,-2.10
2024-01-09T08:57:50.254Z,-2.00
2024-01-09T09:00:18.652Z,-2.00
2024-01-09T09:02:46.912Z,-2.10
2024-01-09T09:05:15.445Z,-2.10
2024-01-09T09:07:44.126Z,-2.10
2024-01-09T09:10:13.377Z,-2.10
2024-01-09T09:12:41.189Z,-2.10
2024-01-09T09:15:09.429Z,-2.10
2024-01-09T09:17:37.301Z,-2.10
2024-01-09T09:20:06.972Z,-2.00
2024-01-09T09:22:35.104Z,-2.00
2024-01-09T09:25:05.153Z,-2.00
2024-01-09T09:27:34.384Z,-2.00
2024-01-09T09:30:02.896Z,-2.00
2024-01-09T09:32:32.468Z,-2.00
2024-01-09T09:35:00.540Z,-2.00
2024-01-09T09:37:28.311Z,-2.00
2024-01-09T09:39:56.029Z,-2.00
2024-01-09T09:42:24.201Z,-2.00
2024-01-09T09:44:54.294Z,-2.00
2024-01-09T09:47:22.907Z,-2.00
2024-01-09T09:49:51.629Z,-2.00
2024-01-09T09:52:20.679Z,-2.00
2024-01-09T09:55:11.672Z,-2.00
2024-01-09T09:57:39.905Z,-2.00
2024-01-09T10:00:09.576Z,-1.90
2024-01-09T10:02:46.524Z,-1.90
2024-01-09T10:05:19.977Z,-1.90
2024-01-09T10:07:52.368Z,-1.90
2024-01-09T10:10:24.320Z,-1.90
2024-01-09T10:12:54.790Z,-1.90
2024-01-09T10:15:22.787Z,-1.80
2024-01-09T10:17:53.896Z,-1.80
2024-01-09T10:20:25.176Z,-1.80
2024-01-09T10:22:54.116Z,-1.80
2024-01-09T10:25:26.530Z,-1.80
2024-01-09T10:27:54.885Z,-1.80
2024-01-09T10:30:24.423Z,-1.80
2024-01-09T10:32:54.976Z,-1.70
2024-01-09T10:35:23.013Z,-1.70
2024-01-09T10:37:55.739Z,-1.70
2024-01-09T10:40:28.288Z,-1.70
2024-01-09T10:42:57.857Z,-1.70
2024-01-09T10:45:26.085Z,-1.70
2024-01-09T10:48:00.378Z,-1.70
2024-01-09T10:50:28.894Z,-1.60
2024-01-09T10:52:57.222Z,-1.60
2024-01-09T10:55:26.567Z,-1.60
2024-01-09T10:57:57.138Z,-1.60
2024-01-09T11:00:27.890Z,-1.50
2024-01-09T11:02:56.117Z,-1.60
2024-01-09T11:05:25.660Z,-1.50
2024-01-09T11:07:57.281Z,-1.50
2024-01-09T11:10:26.817Z,-1.50
2024-01-09T11:12:57.111Z,-1.50
2024-01-09T11:15:30.960Z,-1.50
2024-01-09T11:18:03.743Z,-1.40
2024-01-09T11:20:32.207Z,-1.40
2024-01-09T11:23:00.156Z,-1.40
2024-01-09T11:25:37.506Z,-1.40
2024-01-09T11:28:09.587Z,-1.30
2024-01-09T11:30:39.156Z,-1.30
2024-01-09T11:33:28.969Z,-1.20
2024-01-09T11:35:57.756Z,-1.20
2024-01-09T11:38:26.373Z,-1.20
2024-01-09T11:40:56.024Z,-1.20
2024-01-09T11:43:26.150Z,-1.20
2024-01-09T11:45:58.088Z,-1.20
2024-01-09T11:48:26.612Z,-1.20
2024-01-09T11:50:54.922Z,-1.20
2024-01-09T11:53:24.071Z,-1.20
2024-01-09T11:55:52.389Z,-1.20
2024-01-09T11:58:21.950Z,-1.20
2024-01-09T12:00:52.110Z,-1.10
2024-01-09T12:03:20.303Z,-1.10
2024-01-09T12:05:53.166Z,-1.10
2024-01-09T12:08:21.487Z,-1.10
2024-01-09T12:10:50.640Z,-1.00
2024-01-09T12:13:19.227Z,-1.00
2024-01-09T12:15:47.971Z,-1.00
2024-01-09T12:18:17.773Z,-1.00
2024-01-09T12:20:47.990Z,-1.00
2024-01-09T12:23:16.736Z,-0.90
2024-01-09T12:25:48.922Z,-1.00
2024-01-09T12:28:19.470Z,-0.90
2024-01-09T12:30:48.694Z,-0.80
2024-01-09T12:33:18.691Z,-0.80
2024-01-09T12:35:50.103Z,-0.70
2024-01-09T12:38:18.752Z,-0.60
2024-01-09T12:40:46.683Z,-0.60
2024-01-09T12:43:15.733Z,-0.60
2024-01-09T12:45:44.429Z,-0.50
2024-01-09T12:48:12.634Z,-0.40
2024-01-09T12:50:42.602Z,-0.40
2024-01-09T12:53:11.126Z,-0.40
2024-01-09T12:55:39.102Z,-0.30
2024-01-09T12:58:07.023Z,-0.20
2024-01-09T13:00:36.129Z,-0.10
2024-01-09T13:03:07.214Z,0.00
2024-01-09T13:05:35.824Z,0.20
2024-01-09T13:08:06.555Z,0.50
2024-01-09T13:10:36.581Z,0.90
2024-01-09T13:13:06.712Z,1.30
2024-01-09T13:15:35.343Z,1.60
2024-01-09T13:18:03.870Z,1.80
2024-01-09T13:20:34.219Z,2.10
2024-01-09T13:25:34.758Z,2.60
2024-01-09T13:28:02.902Z,2.80
2024-01-09T13:33:03.283Z,3.20
2024-01-09T13:35:33.515Z,3.30
2024-01-09T13:38:02.024Z,3.30
2024-01-09T13:40:29.986Z,3.40
2024-01-09T13:42:59.320Z,3.50
2024-01-09T13:45:30.228Z,3.50
2024-01-09T13:47:58.435Z,3.50
2024-01-09T13:51:47.579Z,3.40
2024-01-09T13:53:14.689Z,3.30
2024-01-09T13:55:44.571Z,3.10
2024-01-09T13:58:18.536Z,3.00
2024-01-09T14:00:47.294Z,2.90
2024-01-09T14:03:16.034Z,2.90
2024-01-09T14:05:44.274Z,2.80
2024-01-09T14:08:12.578Z,2.60
2024-01-09T14:10:40.642Z,2.60
2024-01-09T14:13:10.865Z,2.50
2024-01-09T14:15:43.570Z,2.50
2024-01-09T14:18:12.071Z,2.50
2024-01-09T14:20:42.109Z,2.40
2024-01-09T14:23:10.683Z,2.40
2024-01-09T14:25:42.049Z,2.30
2024-01-09T14:28:12.303Z,2.20
2024-01-09T14:30:43.253Z,2.10
2024-01-09T14:33:12.239Z,2.10
2024-01-09T14:35:40.225Z,2.00
2024-01-09T14:38:08.478Z,2.00
2024-01-09T14:40:37.256Z,1.90
2024-01-09T14:43:06.002Z,1.90
2024-01-09T14:45:37.258Z,1.90
2024-01-09T14:48:08.125Z,1.80
2024-01-09T14:50:36.366Z,1.80
2024-01-09T14:53:04.462Z,1.70
2024-01-09T14:55:32.944Z,1.70
2024-01-09T14:58:03.319Z,1.60
2024-01-09T15:00:31.252Z,1.50
2024-01-09T15:03:00.692Z,1.40
2024-01-09T15:05:30.911Z,1.30
2024-01-09T15:07:58.966Z,1.20
2024-01-09T15:10:27.602Z,1.10
2024-01-09T15:12:56.945Z,1.00
2024-01-09T15:15:25.040Z,0.80
2024-01-09T15:17:54.885Z,0.80
2024-01-09T15:20:23.334Z,0.70
2024-01-09T15:22:53.158Z,0.60
2024-01-09T15:25:21.541Z,0.60
2024-01-09T15:27:49.515Z,0.50
2024-01-09T15:30:17.882Z,0.40
2024-01-09T15:32:45.898Z,0.30
2024-01-09T15:35:14.296Z,0.30
2024-01-09T15:37:44.000Z,0.20
2024-01-09T15:40:15.896Z,0.20
2024-01-09T15:42:44.424Z,0.20
2024-01-09T15:45:13.802Z,0.10
2024-01-09T15:47:42.823Z,0.10
2024-01-09T15:50:12.227Z,0.00
2024-01-09T15:52:41.998Z,0.00
2024-01-09T15:55:10.846Z,-0.10
2024-01-09T15:57:40.341Z,-0.10
2024-01-09T16:00:11.367Z,-0.10
2024-01-09T16:02:40.516Z,-0.10
2024-01-09T16:05:09.665Z,-0.10
2024-01-09T16:07:38.240Z,-0.20
2024-01-09T16:10:09.206Z,-0.20
2024-01-09T16:12:39.562Z,-0.20
2024-01-09T16:15:09.226Z,-0.20
2024-01-09T16:17:38.200Z,-0.20
2024-01-09T16:20:08.350Z,-0.30
2024-01-09T16:22:39.160Z,-0.30
2024-01-09T16:25:10.361Z,-0.40
2024-01-09T16:27:39.791Z,-0.30
2024-01-09T16:30:12.915Z,-0.40
2024-01-09T16:32:41.184Z,-0.40
2024-01-09T16:35:10.215Z,-0.50
2024-01-09T16:37:40.673Z,-0.50
2024-01-09T16:40:13.362Z,-0.50
2024-01-09T16:42:43.386Z,-0.50
2024-01-09T16:45:12.050Z,-0.50
2024-01-09T16:47:40.069Z,-0.50
2024-01-09T16:50:09.228Z,-0.50
2024-01-09T16:52:37.317Z,-0.50
2024-01-09T16:55:06.212Z,-0.50
2024-01-09T16:57:34.145Z,-0.50
2024-01-09T17:00:06.180Z,-0.60
2024-01-09T17:02:34.070Z,-0.60
2024-01-09T17:05:04.738Z,-0.60
2024-01-09T17:07:33.156Z,-0.70
2024-01-09T17:10:01.308Z,-0.70
2024-01-09T17:12:30.095Z,-0.70
2024-01-09T17:14:58.674Z,-0.70
2024-01-09T17:17:28.284Z,-0.70
2024-01-09T17:19:57.453Z,-0.70
2024-01-09T17:22:25.678Z,-0.70
2024-01-09T17:24:54.094Z,-0.70
2024-01-09T17:27:23.510Z,-0.80
2024-01-09T17:29:51.805Z,-0.80
2024-01-09T17:32:21.359Z,-0.70
2024-01-09T17:34:50.832Z,-0.70
2024-01-09T17:37:23.123Z,-0.70
2024-01-09T17:39:52.882Z,-0.80
2024-01-09T17:42:21.017Z,-0.80
2024-01-09T17:44:49.005Z,-0.80
2024-01-09T17:47:17.562Z,-0.90
2024-01-09T17:49:45.626Z,-0.80
2024-01-09T17:52:15.249Z,-0.90
2024-01-09T17:54:45.288Z,-0.90
2024-01-09T17:57:17.737Z,-0.90
2024-01-09T17:59:47.981Z,-0.90
2024-01-09T18:02:18.179Z,-0.90
2024-01-09T18:04:46.294Z,-0.90
2024-01-09T18:07:16.164Z,-0.90
2024-01-09T18:09:46.455Z,-0.90
2024-01-09T18:12:15.459Z,-0.90
2024-01-09T18:14:45.881Z,-0.90
2024-01-09T18:17:15.110Z,-1.00
2024-01-09T18:19:43.084Z,-1.00
2024-01-09T18:22:11.489Z,-1.00
2024-01-09T18:24:41.878Z,-1.00
2024-01-09T18:27:09.965Z,-1.00
2024-01-09T18:29:40.218Z,-1.00
2024-01-09T18:32:10.958Z,-1.00
2024-01-09T18:34:42.595Z,-1.00
2024-01-09T18:37:13.172Z,-1.00
2024-01-09T18:39:47.325Z,-1.00
2024-01-09T18:42:17.174Z,-1.10
2024-01-09T18:44:45.428Z,-1.10
2024-01-09T18:47:13.457Z,-1.10
2024-01-09T18:49:42.335Z,-1.10
2024-01-09T18:52:11.507Z,-1.10
2024-01-09T18:54:39.490Z,-1.10
2024-01-09T18:57:08.833Z,-1.20
2024-01-09T18:59:37.276Z,-1.10
2024-01-09T19:02:08.220Z,-1.20
2024-01-09T19:04:39.470Z,-1.20
2024-01-09T19:07:07.792Z,-1.20
2024-01-09T19:09:37.177Z,-1.20
2024-01-09T19:12:06.344Z,-1.20
2024-01-09T19:14:36.436Z,-1.20
2024-01-09T19:17:04.808Z,-1.20
2024-01-09T19:19:32.766Z,-1.20
2024-01-09T19:22:01.412Z,-1.20
2024-01-09T19:24:29.569Z,-1.10
2024-01-09T19:26:58.675Z,-1.20
2024-01-09T19:29:27.028Z,-1.20
2024-01-09T19:31:56.585Z,-1.20
2024-01-09T19:34:24.931Z,-1.20
2024-01-09T19:36:53.422Z,-1.30
2024-01-09T19:39:22.237Z,-1.30
2024-01-09T19:41:50.673Z,-1.30
2024-01-09T19:44:20.696Z,-1.30
2024-01-09T19:46:49.010Z,-1.30
2024-01-09T19:49:18.725Z,-1.30
2024-01-09T19:51:48.554Z,-1.30
2024-01-09T19:54:16.562Z,-1.30
2024-01-09T19:56:44.956Z,-1.30
2024-01-09T19:59:13.191Z,-1.40
2024-01-09T20:01:46.836Z,-1.30
2024-01-09T20:04:15.898Z,-1.30
2024-01-09T20:06:46.257Z,-1.30
2024-01-09T20:09:15.239Z,-1.30
2024-01-09T20:11:43.624Z,-1.40
2024-01-09T20:14:12.092Z,-1.40
2024-01-09T20:16:40.138Z,-1.40
2024-01-09T20:19:08.378Z,-1.40
2024-01-09T20:21:36.971Z,-1.40
2024-01-09T20:24:08.155Z,-1.40
2024-01-09T20:26:36.981Z,-1.50
2024-01-09T20:29:06.395Z,-1.40
2024-01-09T20:31:34.629Z,-1.40
2024-01-09T20:34:02.934Z,-1.40
2024-01-09T20:36:32.812Z,-1.50
2024-01-09T20:39:02.423Z,-1.50
2024-01-09T20:41:32.683Z,-1.40
2024-01-09T20:44:01.615Z,-1.50
2024-01-09T20:46:31.872Z,-1.50
2024-01-09T20:49:00.560Z,-1.60
2024-01-09T20:51:29.241Z,-1.60
2024-01-09T20:53:58.677Z,-1.70
2024-01-09T20:56:28.087Z,-1.60
2024-01-09T20:58:58.147Z,-1.70
2024-01-09T21:01:27.189Z,-1.70
2024-01-09T21:03:56.393Z,-1.70
2024-01-09T21:06:24.618Z,-1.70
2024-01-09T21:08:52.723Z,-1.70
2024-01-09T21:11:22.274Z,-1.70
2024-01-09T21:13:50.353Z,-1.70
2024-01-09T21:16:22.785Z,-1.70
2024-01-09T21:18:51.002Z,-1.70
2024-01-09T21:21:20.273Z,-1.70
2024-01-09T21:23:48.620Z,-1.70
2024-01-09T21:26:16.737Z,-1.80
2024-01-09T21:28:45.616Z,-1.80
2024-01-09T21:31:15.147Z,-1.80
2024-01-09T21:33:45.184Z,-1.80
2024-01-09T21:36:13.684Z,-1.80
2024-01-09T21:38:42.213Z,-1.80
2024-01-09T21:41:10.489Z,-1.80
2024-01-09T21:43:38.523Z,-1.80
2024-01-09T21:46:07.205Z,-1.80
2024-01-09T21:48:35.670Z,-1.80
2024-01-09T21:51:05.685Z,-1.90
2024-01-09T21:53:33.881Z,-1.90
2024-01-09T21:56:02.246Z,-1.90
2024-01-09T21:58:31.054Z,-1.90
2024-01-09T22:01:01.454Z,-1.90
2024-01-09T22:03:29.466Z,-1.90
2024-01-09T22:05:58.022Z,-2.00
2024-01-09T22:08:27.729Z,-2.00
2024-01-09T22:10:55.765Z,-2.00
2024-01-09T22:13:23.910Z,-1.90
2024-01-09T22:15:52.704Z,-2.00
2024-01-09T22:18:21.761Z,-2.00
2024-01-09T22:20:50.251Z,-2.00
2024-01-09T22:23:18.555Z,-2.00
2024-01-09T22:25:48.390Z,-2.00
2024-01-09T22:28:19.439Z,-2.00
2024-01-09T22:30:47.980Z,-2.00
2024-01-09T22:33:19.138Z,-2.00
2024-01-09T22:35:48.565Z,-2.10
2024-01-09T22:38:16.992Z,-2.10
2024-01-09T22:40:46.242Z,-2.10
2024-01-09T22:43:16.026Z,-2.10
2024-01-09T22:45:45.710Z,-2.10
2024-01-09T22:48:14.013Z,-2.10
2024-01-09T22:50:45.752Z,-2.10
2024-01-09T22:53:14.819Z,-2.10
2024-01-09T22:55:42.930Z,-2.10
2024-01-09T22:58:11.111Z,-2.10
2024-01-09T23:00:41.311Z,-2.10
2024-01-09T23:03:09.546Z,-2.10
2024-01-09T23:05:38.239Z,-2.10
2024-01-09T23:08:07.534Z,-2.10
2024-01-09T23:10:35.847Z,-2.20
2024-01-09T23:13:03.927Z,-2.20
2024-01-09T23:15:32.363Z,-2.30
2024-01-09T23:18:02.414Z,-2.30
2024-01-09T23:20:31.383Z,-2.30
2024-01-09T23:23:01.535Z,-2.30
2024-01-09T23:25:29.730Z,-2.40
2024-01-09T23:27:57.900Z,-2.40
2024-01-09T23:30:26.166Z,-2.40
2024-01-09T23:32:57.365Z,-2.30
2024-01-09T23:35:27.560Z,-2.40
2024-01-09T23:37:55.584Z,-2.40
2024-01-09T23:40:24.204Z,-2.40
2024-01-09T23:42:55.728Z,-2.30
2024-01-09T23:45:23.925Z,-2.40
2024-01-09T23:47:52.360Z,-2.40
2024-01-09T23:50:22.735Z,-2.40
2024-01-09T23:52:52.463Z,-2.40
2024-01-09T23:55:20.648Z,-2.40
2024-01-09T23:57:48.866Z,-2.40
